createdAt,value
2017-10-02T00:01:46.557Z,4.60
2017-10-02T00:03:47.520Z,5.10
2017-10-02T00:05:48.486Z,5.30
2017-10-02T00:07:50.183Z,5.13
2017-10-02T00:09:51.157Z,5.83
2017-10-02T00:11:52.113Z,5.30
2017-10-02T00:13:53.084Z,5.70
2017-10-02T00:15:54.785Z,6.10
2017-10-02T00:17:55.743Z,6.40
2017-10-02T00:19:56.704Z,6.03
2017-10-02T00:21:57.661Z,5.40
2017-10-02T00:23:58.638Z,6.47
2017-10-02T00:26:00.349Z,5.60
2017-10-02T00:28:01.305Z,5.93
2017-10-02T00:30:02.274Z,6.00
2017-10-02T00:32:03.423Z,6.33
2017-10-02T00:34:04.382Z,5.80
2017-10-02T00:36:06.161Z,6.57
2017-10-02T00:38:07.870Z,6.50
2017-10-02T00:40:08.857Z,6.90
2017-10-02T00:42:09.822Z,6.50
2017-10-02T00:44:10.780Z,6.10
2017-10-02T00:46:11.745Z,7.17
2017-10-02T00:48:12.701Z,6.57
2017-10-02T00:50:13.673Z,7.10
2017-10-02T00:52:14.649Z,6.80
2017-10-02T00:54:15.665Z,6.10
2017-10-02T00:56:16.629Z,6.97
2017-10-02T00:58:18.329Z,7.07
2017-10-02T01:00:19.284Z,8.00
2017-10-02T01:02:20.244Z,7.23
2017-10-02T01:04:21.948Z,7.30
2017-10-02T01:06:23.986Z,6.87
2017-10-02T01:08:24.961Z,7.00
2017-10-02T01:10:26.666Z,6.70
2017-10-02T01:12:27.645Z,6.10
2017-10-02T01:14:28.617Z,5.85
2017-10-02T01:16:30.330Z,5.70
2017-10-02T01:18:31.319Z,6.80
2017-10-02T01:20:32.377Z,5.43
2017-10-02T01:22:34.084Z,6.07
2017-10-02T01:24:35.027Z,5.73
2017-10-02T01:26:35.992Z,4.47
2017-10-02T01:28:36.964Z,4.83
2017-10-02T01:30:37.922Z,4.90
2017-10-02T01:32:39.648Z,5.70
2017-10-02T01:34:40.617Z,6.63
2017-10-02T01:36:41.585Z,5.77
2017-10-02T01:38:43.294Z,5.10
2017-10-02T01:40:44.254Z,5.93
2017-10-02T01:42:45.996Z,4.70
2017-10-02T01:44:46.961Z,5.07
2017-10-02T01:46:47.930Z,5.83
2017-10-02T01:48:48.905Z,4.10
2017-10-02T01:50:49.865Z,5.50
2017-10-02T01:52:50.849Z,5.07
2017-10-02T01:54:51.817Z,5.60
2017-10-02T01:56:52.777Z,4.87
2017-10-02T01:58:54.490Z,4.93
2017-10-02T02:00:55.450Z,5.37
2017-10-02T02:02:56.436Z,4.60
2017-10-02T02:04:58.138Z,5.07
2017-10-02T02:06:59.113Z,3.90
2017-10-02T02:09:00.097Z,5.97
2017-10-02T02:11:01.057Z,5.10
2017-10-02T02:13:02.029Z,4.00
2017-10-02T02:15:02.993Z,4.97
2017-10-02T02:17:03.957Z,4.67
2017-10-02T02:19:04.933Z,5.67
2017-10-02T02:21:05.894Z,4.00
2017-10-02T02:23:06.855Z,4.43
2017-10-02T02:25:07.819Z,4.87
2017-10-02T02:27:08.781Z,5.23
2017-10-02T02:29:09.749Z,5.57
2017-10-02T02:31:11.456Z,4.00
2017-10-02T02:33:12.423Z,4.90
2017-10-02T02:35:13.410Z,4.20
2017-10-02T02:37:15.124Z,4.90
2017-10-02T02:39:16.108Z,5.47
2017-10-02T02:41:17.823Z,4.30
2017-10-02T02:43:18.841Z,5.40
2017-10-02T02:45:19.817Z,5.30
2017-10-02T02:47:20.777Z,4.63
2017-10-02T02:49:21.745Z,5.37
2017-10-02T02:51:22.730Z,5.90
2017-10-02T02:53:23.720Z,4.43
2017-10-02T02:55:24.701Z,5.07
2017-10-02T02:57:26.396Z,5.37
2017-10-02T02:59:27.352Z,4.80
2017-10-02T03:01:28.317Z,5.10
2017-10-02T03:03:29.278Z,5.27
2017-10-02T03:05:30.245Z,5.40
2017-10-02T03:07:31.945Z,4.63
2017-10-02T03:09:32.892Z,4.67
2017-10-02T03:11:33.846Z,5.00
2017-10-02T03:13:34.805Z,4.50
2017-10-02T03:15:35.822Z,4.70
2017-10-02T03:17:36.772Z,5.20
2017-10-02T03:19:37.728Z,5.00
2017-10-02T03:21:38.693Z,4.97
2017-10-02T03:23:39.653Z,5.73
2017-10-02T03:25:40.677Z,4.03
2017-10-02T03:27:41.639Z,4.43
2017-10-02T03:29:42.592Z,5.33
2017-10-02T03:31:43.553Z,4.77
2017-10-02T03:33:45.248Z,4.73
2017-10-02T03:35:46.222Z,4.97
2017-10-02T03:37:47.197Z,4.90
2017-10-02T03:39:48.153Z,5.20
2017-10-02T03:41:49.849Z,5.30
2017-10-02T03:43:50.804Z,4.63
2017-10-02T03:45:51.764Z,5.13
2017-10-02T03:47:52.728Z,5.00
2017-10-02T03:49:53.685Z,4.80
2017-10-02T03:51:54.672Z,5.07
2017-10-02T03:53:55.620Z,4.53
2017-10-02T03:55:56.569Z,5.10
2017-10-02T03:57:57.550Z,4.40
2017-10-02T03:59:58.505Z,4.63
2017-10-02T04:01:59.474Z,4.60
2017-10-02T04:04:01.177Z,4.90
2017-10-02T04:06:02.137Z,4.83
2017-10-02T04:08:03.096Z,4.80
2017-10-02T04:10:04.214Z,5.10
2017-10-02T04:12:05.191Z,4.77
2017-10-02T04:14:06.152Z,5.03
2017-10-02T04:16:07.125Z,5.23
2017-10-02T04:18:08.834Z,4.50
2017-10-02T04:20:09.798Z,5.73
2017-10-02T04:22:10.753Z,5.30
2017-10-02T04:24:11.725Z,5.57
2017-10-02T04:26:13.457Z,4.67
2017-10-02T04:28:14.421Z,4.70
2017-10-02T04:30:15.380Z,5.30
2017-10-02T04:32:17.065Z,4.50
2017-10-02T04:34:18.013Z,6.70
2017-10-02T04:36:18.964Z,5.40
2017-10-02T04:38:22.936Z,4.90
2017-10-02T04:40:23.880Z,5.57
2017-10-02T04:42:24.832Z,5.40
2017-10-02T04:44:26.529Z,5.30
2017-10-02T04:46:27.472Z,5.03
2017-10-02T04:48:28.445Z,5.67
2017-10-02T04:50:29.413Z,4.10
2017-10-02T04:52:30.745Z,5.20
2017-10-02T04:54:31.836Z,2.83
2017-10-02T04:56:32.781Z,5.07
2017-10-02T04:58:33.740Z,4.43
2017-10-02T05:00:35.430Z,4.47
2017-10-02T05:02:36.364Z,5.27
2017-10-02T05:04:37.316Z,3.57
2017-10-02T05:06:38.261Z,4.80
2017-10-02T05:08:39.205Z,4.80
2017-10-02T05:10:40.152Z,4.73
2017-10-02T05:12:41.103Z,5.47
2017-10-02T05:14:42.069Z,4.90
2017-10-02T05:16:43.021Z,4.80
2017-10-02T05:18:43.965Z,3.33
2017-10-02T05:20:44.933Z,5.33
2017-10-02T05:22:45.896Z,5.03
2017-10-02T05:24:47.611Z,4.67
2017-10-02T05:26:48.580Z,5.10
2017-10-02T05:28:49.537Z,5.50
2017-10-02T05:30:50.505Z,5.00
2017-10-02T05:32:52.221Z,5.30
2017-10-02T05:34:53.266Z,4.17
2017-10-02T05:36:54.213Z,6.23
2017-10-02T05:38:55.182Z,6.10
2017-10-02T05:40:56.143Z,6.13
2017-10-02T05:42:57.869Z,6.20
2017-10-02T05:44:58.850Z,5.67
2017-10-02T05:47:00.545Z,6.23
2017-10-02T05:49:01.496Z,6.47
2017-10-02T05:51:02.449Z,5.27
2017-10-02T05:53:03.402Z,5.50
2017-10-02T05:55:04.365Z,6.03
2017-10-02T05:57:05.324Z,5.33
2017-10-02T05:59:06.571Z,5.40
2017-10-02T06:01:07.525Z,5.77
2017-10-02T06:03:08.477Z,5.50
2017-10-02T06:05:09.415Z,6.47
2017-10-02T06:07:10.365Z,6.13
2017-10-02T06:09:11.321Z,5.97
2017-10-02T06:11:13.021Z,6.47
2017-10-02T06:13:13.971Z,5.40
2017-10-02T06:15:14.925Z,6.17
2017-10-02T06:17:15.873Z,5.70
2017-10-02T06:19:16.833Z,6.50
2017-10-02T06:21:17.806Z,5.40
2017-10-02T06:23:18.762Z,6.00
2017-10-02T06:25:20.448Z,6.30
2017-10-02T06:27:21.421Z,5.30
2017-10-02T06:29:22.372Z,6.83
2017-10-02T06:31:23.344Z,6.43
2017-10-02T06:33:24.305Z,7.10
2017-10-02T06:35:26.004Z,6.90
2017-10-02T06:37:26.976Z,5.67
2017-10-02T06:39:27.929Z,6.03
2017-10-02T06:41:28.884Z,6.40
2017-10-02T06:43:29.859Z,6.13
2017-10-02T06:45:31.582Z,5.73
2017-10-02T06:47:32.558Z,7.47
2017-10-02T06:49:34.896Z,6.77
2017-10-02T06:51:36.682Z,6.17
2017-10-02T06:53:37.649Z,6.50
2017-10-02T06:55:39.375Z,6.17
2017-10-02T06:57:40.377Z,6.70
2017-10-02T06:59:42.126Z,6.20
2017-10-02T07:01:43.833Z,5.20
2017-10-02T07:03:44.790Z,5.03
2017-10-02T07:05:45.833Z,5.20
2017-10-02T07:07:46.800Z,6.23
2017-10-02T07:09:47.749Z,5.73
2017-10-02T07:11:48.701Z,6.37
2017-10-02T07:13:49.678Z,5.17
2017-10-02T07:15:51.368Z,5.27
2017-10-02T07:17:52.320Z,5.00
2017-10-02T07:19:53.273Z,5.90
2017-10-02T07:21:54.225Z,5.40
2017-10-02T07:23:55.200Z,4.70
2017-10-02T07:25:56.148Z,4.83
2017-10-02T07:27:57.117Z,5.20
2017-10-02T07:29:58.078Z,5.10
2017-10-02T07:31:59.021Z,4.83
2017-10-02T07:33:59.989Z,4.80
2017-10-02T07:36:00.944Z,4.23
2017-10-02T07:38:01.998Z,4.73
2017-10-02T07:40:02.945Z,5.43
2017-10-02T07:42:03.902Z,5.27
2017-10-02T07:44:05.041Z,4.85
2017-10-02T07:46:06.003Z,5.00
2017-10-02T07:48:06.960Z,5.30
2017-10-02T07:50:07.917Z,5.37
2017-10-02T07:52:10.001Z,5.00
2017-10-02T07:54:11.002Z,4.77
2017-10-02T07:56:11.953Z,4.70
2017-10-02T07:58:12.905Z,5.60
2017-10-02T08:00:13.869Z,4.70
2017-10-02T08:02:15.565Z,5.00
2017-10-02T08:04:16.523Z,5.73
2017-10-02T08:06:17.479Z,5.13
2017-10-02T08:08:18.430Z,5.00
2017-10-02T08:10:19.400Z,5.20
2017-10-02T08:12:20.350Z,4.20
2017-10-02T08:14:21.296Z,4.80
2017-10-02T08:16:22.258Z,4.10
2017-10-02T08:18:31.021Z,5.43
2017-10-02T08:20:31.986Z,5.47
2017-10-02T08:22:32.940Z,4.77
2017-10-02T08:24:33.897Z,4.63
2017-10-02T08:26:34.869Z,4.07
2017-10-02T08:28:36.565Z,4.67
2017-10-02T08:30:37.522Z,4.07
2017-10-02T08:32:38.478Z,4.23
2017-10-02T08:34:39.462Z,4.70
2017-10-02T08:36:41.287Z,5.10
2017-10-02T08:38:42.261Z,4.60
2017-10-02T08:40:43.217Z,5.00
2017-10-02T08:42:44.910Z,3.70
2017-10-02T08:44:45.868Z,4.73
2017-10-02T08:46:46.819Z,5.10
2017-10-02T08:48:47.797Z,4.63
2017-10-02T08:50:48.757Z,4.60
2017-10-02T08:52:50.505Z,4.23
2017-10-02T08:54:51.461Z,5.43
2017-10-02T08:56:53.193Z,5.40
2017-10-02T08:58:54.141Z,4.50
2017-10-02T09:00:55.103Z,4.50
2017-10-02T09:02:56.267Z,4.57
2017-10-02T09:04:57.222Z,5.07
2017-10-02T09:06:58.941Z,3.30
2017-10-02T09:08:59.892Z,3.80
2017-10-02T09:11:00.864Z,3.70
2017-10-02T09:13:01.826Z,4.07
2017-10-02T09:15:03.525Z,4.17
2017-10-02T09:17:04.540Z,3.90
2017-10-02T09:19:06.454Z,3.70
2017-10-02T09:21:07.426Z,3.90
2017-10-02T09:23:08.396Z,3.87
2017-10-02T09:25:10.098Z,3.93
2017-10-02T09:27:11.060Z,4.20
2017-10-02T09:29:12.013Z,3.90
2017-10-02T09:31:12.981Z,4.13
2017-10-02T09:33:13.937Z,4.67
2017-10-02T09:35:15.623Z,3.60
2017-10-02T09:37:16.592Z,3.27
2017-10-02T09:39:17.542Z,3.93
2017-10-02T09:41:18.500Z,3.73
2017-10-02T09:43:19.468Z,4.37
2017-10-02T09:45:20.539Z,3.67
2017-10-02T09:47:22.238Z,3.90
2017-10-02T09:49:23.200Z,3.60
2017-10-02T09:51:24.156Z,4.00
2017-10-02T09:53:25.121Z,3.60
2017-10-02T09:55:26.068Z,3.90
2017-10-02T09:57:27.021Z,4.50
2017-10-02T09:59:28.733Z,4.03
2017-10-02T10:01:29.684Z,4.50
2017-10-02T10:03:30.646Z,4.80
2017-10-02T10:05:31.605Z,4.73
2017-10-02T10:07:32.569Z,4.70
2017-10-02T10:09:33.533Z,4.40
2017-10-02T10:11:34.556Z,4.90
2017-10-02T10:13:35.552Z,5.03
2017-10-02T10:15:36.498Z,5.00
2017-10-02T10:17:37.472Z,4.23
2017-10-02T10:19:38.433Z,4.13
2017-10-02T10:21:39.406Z,5.23
2017-10-02T10:23:41.127Z,5.90
2017-10-02T10:25:42.092Z,5.17
2017-10-02T10:27:43.064Z,5.80
2017-10-02T10:29:44.760Z,4.83
2017-10-02T10:31:45.712Z,5.27
2017-10-02T10:33:46.664Z,5.40
2017-10-02T10:35:47.644Z,5.97
2017-10-02T10:37:48.603Z,5.00
2017-10-02T10:39:50.300Z,6.00
2017-10-02T10:41:51.261Z,6.10
2017-10-02T10:43:52.216Z,6.40
2017-10-02T10:45:53.957Z,6.33
2017-10-02T10:47:54.917Z,5.73
2017-10-02T10:49:55.873Z,6.40
2017-10-02T10:51:56.832Z,6.00
2017-10-02T10:53:57.787Z,5.40
2017-10-02T10:55:58.732Z,6.67
2017-10-02T10:57:59.682Z,6.90
2017-10-02T11:00:00.650Z,7.03
2017-10-02T11:02:02.357Z,7.03
2017-10-02T11:04:03.321Z,6.90
2017-10-02T11:06:04.279Z,8.37
2017-10-02T11:08:05.256Z,8.10
2017-10-02T11:10:06.302Z,8.93
2017-10-02T11:12:07.253Z,8.50
2017-10-02T11:14:08.244Z,7.53
2017-10-02T11:16:09.206Z,8.57
2017-10-02T11:18:10.289Z,8.60
2017-10-02T11:20:11.988Z,9.53
2017-10-02T11:22:12.937Z,9.73
2017-10-02T11:24:13.892Z,10.07
2017-10-02T11:26:14.897Z,9.70
2017-10-02T11:28:15.850Z,9.60
2017-10-02T11:30:16.817Z,10.97
2017-10-02T11:32:17.786Z,9.87
2017-10-02T11:34:19.483Z,10.33
2017-10-02T11:36:21.217Z,9.60
2017-10-02T11:38:22.169Z,9.97
2017-10-02T11:40:23.138Z,10.57
2017-10-02T11:42:24.832Z,9.57
2017-10-02T11:44:25.784Z,11.10
2017-10-02T11:46:26.740Z,9.40
2017-10-02T11:48:27.692Z,11.50
2017-10-02T11:50:28.640Z,10.20
2017-10-02T11:52:29.604Z,10.43
2017-10-02T11:54:30.595Z,10.23
2017-10-02T11:56:31.544Z,10.37
2017-10-02T11:58:32.502Z,11.33
2017-10-02T12:00:33.468Z,11.83
2017-10-02T12:02:34.433Z,9.20
2017-10-02T12:04:35.414Z,9.90
2017-10-02T12:06:37.113Z,10.33
2017-10-02T12:08:38.064Z,9.80
2017-10-02T12:10:39.021Z,9.37
2017-10-02T12:12:39.973Z,8.53
2017-10-02T12:14:40.953Z,10.00
2017-10-02T12:16:42.661Z,8.70
2017-10-02T12:18:43.621Z,8.17
2017-10-02T12:20:44.580Z,8.40
2017-10-02T12:22:45.536Z,8.60
2017-10-02T12:24:46.480Z,7.57
2017-10-02T12:26:47.450Z,7.20
2017-10-02T12:28:48.429Z,7.43
2017-10-02T12:30:49.382Z,8.20
2017-10-02T12:32:50.353Z,7.90
2017-10-02T12:34:51.321Z,7.97
2017-10-02T12:36:52.270Z,7.50
2017-10-02T12:38:53.231Z,8.60
2017-10-02T12:40:54.927Z,8.10
2017-10-02T12:42:55.904Z,8.20
2017-10-02T12:44:56.856Z,8.73
2017-10-02T12:46:57.808Z,9.10
2017-10-02T12:48:58.771Z,8.30
2017-10-02T12:51:00.477Z,7.93
2017-10-02T12:53:01.505Z,9.00
2017-10-02T12:55:02.477Z,7.77
2017-10-02T12:57:03.457Z,8.60
2017-10-02T12:59:04.417Z,9.00
2017-10-02T13:01:06.121Z,9.10
2017-10-02T13:03:07.081Z,8.93
2017-10-02T13:05:08.033Z,9.43
2017-10-02T13:07:15.893Z,9.57
2017-10-02T13:09:16.937Z,9.60
2017-10-02T13:11:18.640Z,9.37
2017-10-02T13:13:19.613Z,9.97
2017-10-02T13:15:20.585Z,11.33
2017-10-02T13:17:22.295Z,10.97
2017-10-02T13:19:23.268Z,10.30
2017-10-02T13:21:24.225Z,11.57
2017-10-02T13:23:25.176Z,10.07
2017-10-02T13:25:26.130Z,11.10
2017-10-02T13:27:27.849Z,12.83
2017-10-02T13:29:28.821Z,11.90
2017-10-02T13:31:29.786Z,10.50
2017-10-02T13:33:31.475Z,10.43
2017-10-02T13:35:32.449Z,11.37
2017-10-02T13:37:33.419Z,10.60
2017-10-02T13:39:34.391Z,10.70
2017-10-02T13:41:36.175Z,10.90
2017-10-02T13:43:37.128Z,10.38
2017-10-02T13:45:38.096Z,9.97
2017-10-02T13:47:39.062Z,9.37
2017-10-02T13:49:40.024Z,10.73
2017-10-02T13:51:41.006Z,9.40
2017-10-02T13:53:41.959Z,9.80
2017-10-02T13:55:42.916Z,9.47
2017-10-02T13:57:43.878Z,9.83
2017-10-02T13:59:44.826Z,9.87
2017-10-02T14:01:45.782Z,9.83
2017-10-02T14:03:46.790Z,9.97
2017-10-02T14:05:47.773Z,10.67
2017-10-02T14:07:48.733Z,10.67
2017-10-02T14:09:49.692Z,9.27
2017-10-02T14:11:51.398Z,11.17
2017-10-02T14:13:52.373Z,9.10
2017-10-02T14:15:53.338Z,10.03
2017-10-02T14:17:54.292Z,8.80
2017-10-02T14:19:55.976Z,9.70
2017-10-02T14:21:56.928Z,9.13
2017-10-02T14:23:57.885Z,9.93
2017-10-02T14:25:58.846Z,9.27
2017-10-02T14:27:59.808Z,10.87
2017-10-02T14:30:00.849Z,9.73
2017-10-02T14:32:01.817Z,9.73
2017-10-02T14:34:02.769Z,9.90
2017-10-02T14:36:03.719Z,9.70
2017-10-02T14:38:04.676Z,9.20
2017-10-02T14:40:06.360Z,10.20
2017-10-02T14:42:07.317Z,9.00
2017-10-02T14:44:08.265Z,8.70
2017-10-02T14:46:09.227Z,8.30
2017-10-02T14:48:10.192Z,8.20
2017-10-02T14:50:11.153Z,9.17
2017-10-02T14:52:13.601Z,8.20
2017-10-02T14:54:14.565Z,7.60
2017-10-02T14:56:15.549Z,7.70
2017-10-02T14:58:17.266Z,8.50
2017-10-02T15:00:18.241Z,8.63
2017-10-02T15:02:20.006Z,10.03
2017-10-02T15:04:20.997Z,8.27
2017-10-02T15:06:21.960Z,8.87
2017-10-02T15:08:22.919Z,8.70
2017-10-02T15:10:23.886Z,8.97
2017-10-02T15:12:24.851Z,8.93
2017-10-02T15:14:25.809Z,9.20
2017-10-02T15:16:26.761Z,9.80
2017-10-02T15:18:27.749Z,9.20
2017-10-02T15:20:28.718Z,8.20
2017-10-02T15:22:29.710Z,8.80
2017-10-02T15:24:30.657Z,8.63
2017-10-02T15:26:31.616Z,9.30
2017-10-02T15:28:32.585Z,9.87
2017-10-02T15:30:33.545Z,9.00
2017-10-02T15:32:34.509Z,9.27
2017-10-02T15:34:36.224Z,9.23
2017-10-02T15:36:37.174Z,9.23
2017-10-02T15:38:38.137Z,9.83
2017-10-02T15:40:39.902Z,9.20
2017-10-02T15:42:40.905Z,8.57
2017-10-02T15:44:41.868Z,10.37
2017-10-02T15:46:42.826Z,10.30
2017-10-02T15:48:43.784Z,10.23
2017-10-02T15:50:44.747Z,10.50
2017-10-02T15:52:46.432Z,10.30
2017-10-02T15:54:47.425Z,10.30
2017-10-02T15:56:49.126Z,10.30
2017-10-02T15:58:50.957Z,11.90
2017-10-02T16:00:51.916Z,9.80
2017-10-02T16:02:52.864Z,11.80
2017-10-02T16:04:53.835Z,10.50
2017-10-02T16:06:55.537Z,10.90
2017-10-02T16:08:56.500Z,12.17
2017-10-02T16:10:57.471Z,12.17
2017-10-02T16:12:58.435Z,11.77
2017-10-02T16:15:00.153Z,10.70
2017-10-02T16:17:01.175Z,10.70
2017-10-02T16:19:02.137Z,9.23
2017-10-02T16:21:03.106Z,9.40
2017-10-02T16:23:04.049Z,9.10
2017-10-02T16:25:05.013Z,9.23
2017-10-02T16:27:05.960Z,9.63
2017-10-02T16:29:06.922Z,8.73
2017-10-02T16:31:08.641Z,9.03
2017-10-02T16:33:09.589Z,8.87
2017-10-02T16:35:10.554Z,9.60
2017-10-02T16:37:11.546Z,9.83
2017-10-02T16:39:12.520Z,7.90
2017-10-02T16:41:13.497Z,10.10
2017-10-02T16:43:14.448Z,9.33
2017-10-02T16:45:15.434Z,9.70
2017-10-02T16:47:16.389Z,9.60
2017-10-02T16:49:17.360Z,9.53
2017-10-02T16:51:18.320Z,10.00
2017-10-02T16:53:19.273Z,9.70
2017-10-02T16:55:20.227Z,8.80
2017-10-02T16:57:23.129Z,9.90
2017-10-02T16:59:24.867Z,7.87
2017-10-02T17:01:25.995Z,7.47
2017-10-02T17:03:26.976Z,8.57
2017-10-02T17:05:28.673Z,8.10
2017-10-02T17:07:29.625Z,7.97
2017-10-02T17:09:30.583Z,8.13
2017-10-02T17:11:32.321Z,8.97
2017-10-02T17:13:33.304Z,7.63
2017-10-02T17:15:34.294Z,8.67
2017-10-02T17:17:36.067Z,8.80
2017-10-02T17:19:37.880Z,8.30
2017-10-02T17:21:39.378Z,8.07
2017-10-02T17:23:40.447Z,7.40
2017-10-02T17:25:41.402Z,8.33
2017-10-02T17:27:42.497Z,8.27
2017-10-02T17:29:43.449Z,8.60
2017-10-02T17:31:44.412Z,8.27
2017-10-02T17:33:46.240Z,8.07
2017-10-02T17:35:47.184Z,8.40
2017-10-02T17:37:48.169Z,8.83
2017-10-02T17:39:49.143Z,9.43
2017-10-02T17:41:50.190Z,8.30
2017-10-02T17:43:51.207Z,8.70
2017-10-02T17:45:52.668Z,8.87
2017-10-02T17:47:53.669Z,10.33
2017-10-02T17:49:55.182Z,8.17
2017-10-02T17:51:56.406Z,9.40
2017-10-02T17:53:57.392Z,8.37
2017-10-02T17:55:59.080Z,7.70
2017-10-02T17:58:00.053Z,8.80
2017-10-02T18:00:01.111Z,8.97
2017-10-02T18:02:02.085Z,8.93
2017-10-02T18:04:03.058Z,7.57
2017-10-02T18:06:04.010Z,8.23
2017-10-02T18:08:04.966Z,8.63
2017-10-02T18:10:05.930Z,8.60
2017-10-02T18:12:06.892Z,8.87
2017-10-02T18:14:07.853Z,8.40
2017-10-02T18:16:09.595Z,9.20
2017-10-02T18:18:10.554Z,9.07
2017-10-02T18:20:11.521Z,8.80
2017-10-02T18:22:13.205Z,8.53
2017-10-02T18:24:14.163Z,7.80
2017-10-02T18:26:15.157Z,8.27
2017-10-02T18:28:16.123Z,8.80
2017-10-02T18:30:17.845Z,8.03
2017-10-02T18:32:18.812Z,8.53
2017-10-02T18:34:19.771Z,9.20
2017-10-02T18:36:21.476Z,7.70
2017-10-02T18:38:22.438Z,9.27
2017-10-02T18:40:24.156Z,7.80
2017-10-02T18:42:25.120Z,9.53
2017-10-02T18:44:26.078Z,8.47
2017-10-02T18:46:27.062Z,8.07
2017-10-02T18:48:28.045Z,8.50
2017-10-02T18:50:29.762Z,7.70
2017-10-02T18:52:30.712Z,9.43
2017-10-02T18:54:31.681Z,8.00
2017-10-02T18:56:33.422Z,8.40
2017-10-02T18:58:34.374Z,9.40
2017-10-02T19:00:35.338Z,7.43
2017-10-02T19:02:37.050Z,8.87
2017-10-02T19:04:38.025Z,8.20
2017-10-02T19:06:39.049Z,8.40
2017-10-02T19:08:40.002Z,7.90
2017-10-02T19:10:41.045Z,9.20
2017-10-02T19:12:41.996Z,8.80
2017-10-02T19:14:42.999Z,8.07
2017-10-02T19:16:43.980Z,7.70
2017-10-02T19:18:44.950Z,8.10
2017-10-02T19:20:45.901Z,8.10
2017-10-02T19:22:46.885Z,8.00
2017-10-02T19:24:47.840Z,9.20
2017-10-02T19:26:48.831Z,7.70
2017-10-02T19:28:49.772Z,7.50
2017-10-02T19:30:50.732Z,8.07
2017-10-02T19:32:51.693Z,8.13
2017-10-02T19:34:53.391Z,7.33
2017-10-02T19:36:54.366Z,9.13
2017-10-02T19:38:55.337Z,7.43
2017-10-02T19:40:56.280Z,7.90
2017-10-02T19:42:57.248Z,8.80
2017-10-02T19:44:58.938Z,8.03
2017-10-02T19:46:59.917Z,7.70
2017-10-02T19:49:00.868Z,8.40
2017-10-02T19:51:01.837Z,7.10
2017-10-02T19:55:41.071Z,7.80
2017-10-02T19:57:43.348Z,8.23
2017-10-02T20:00:09.070Z,7.43
2017-10-02T20:02:10.106Z,7.87
2017-10-02T20:04:11.102Z,7.47
2017-10-02T20:06:12.061Z,8.10
2017-10-02T20:08:13.767Z,6.63
2017-10-02T20:12:45.317Z,7.07
2017-10-02T20:14:46.273Z,7.67
2017-10-02T20:16:47.282Z,7.83
2017-10-02T20:21:37.037Z,8.10
2017-10-02T20:23:38.067Z,7.67
2017-10-02T20:30:57.896Z,8.20
2017-10-02T20:38:27.056Z,7.33
2017-10-02T20:43:07.276Z,7.77
2017-10-02T20:45:08.363Z,7.87
2017-10-02T20:49:37.232Z,7.55
2017-10-02T20:51:38.985Z,8.07
2017-10-02T20:53:40.051Z,7.97
2017-10-02T20:57:59.411Z,7.97
2017-10-02T21:02:38.892Z,7.67
2017-10-02T21:04:40.039Z,8.57
2017-10-02T21:06:41.520Z,7.37
2017-10-02T21:19:03.708Z,8.10
2017-10-02T21:21:09.923Z,8.13
2017-10-02T21:23:12.942Z,8.10
2017-10-02T21:33:00.184Z,8.07
2017-10-02T21:35:06.906Z,7.53
2017-10-02T21:37:09.388Z,8.00
2017-10-02T21:41:48.907Z,7.47
2017-10-02T21:46:38.852Z,8.60
2017-10-02T21:51:28.811Z,6.67
2017-10-02T21:53:29.982Z,7.37
2017-10-02T21:55:31.591Z,9.10
2017-10-02T21:57:39.686Z,8.50
2017-10-02T22:02:17.414Z,7.83
2017-10-02T22:09:36.201Z,8.17
2017-10-02T22:11:38.930Z,7.87
2017-10-02T22:13:58.440Z,8.13
2017-10-02T22:26:36.344Z,7.70
2017-10-02T22:31:11.531Z,8.03
2017-10-02T22:33:13.727Z,7.77
2017-10-02T22:35:18.084Z,6.90
2017-10-02T22:40:05.245Z,7.77
2017-10-02T22:42:06.506Z,7.90
2017-10-02T22:44:15.208Z,9.37
2017-10-02T22:46:17.335Z,8.80
2017-10-02T22:53:34.180Z,8.80
2017-10-02T22:55:35.999Z,8.73
2017-10-02T23:03:10.007Z,8.20
2017-10-02T23:15:32.893Z,8.40
2017-10-02T23:30:37.732Z,9.10
2017-10-02T23:32:39.493Z,8.17
2017-10-02T23:37:34.350Z,8.53
2017-10-02T23:39:36.461Z,7.93
2017-10-02T23:42:02.514Z,7.70
2017-10-02T23:44:05.886Z,8.10
2017-10-02T23:46:07.374Z,9.03
2017-10-02T23:48:09.925Z,9.37
2017-10-02T23:50:13.074Z,9.80
